Nearby METAR Reports

 

KBVO - Bartlesville, Oklahoma, USA
Distance from station: WNW 10mi, 16km
Updated: Wed, 23-Jan-2019 12:53pm CST
Partly cloudy
Partly cloudy
 Wind from varies
Wind: varies 6 mph , 9 km/h
Temperature: 30°F , -1°C
Wind Chill: 24°F , -4°C
Dew Point: 21°F , -6°C
Humidity: 69%
Barometer: 30.12 inHg , 1020 hPa
Clouds: Partly cloudy
Visibility: 10 miles , 16 km
Cloud details: Partly cloudy 2400 ft
2019/01/23 18:53 KBVO 231853Z AUTO VRB05KT 10SM SCT024 M01/M06 A3012 RMK AO2 SLP201 T10061061
KCFV - Coffeyville, Kansas, USA
Distance from station: NNE 31mi, 49km
Updated: Wed, 23-Jan-2019 12:52pm CST
Mostly cloudy
Mostly cloudy
 Wind from NNW
Wind: NNW 12 mph , 19 km/h
Temperature: 28°F , -2°C
Wind Chill: 18°F , -8°C
Dew Point: 19°F , -7°C
Humidity: 69%
Barometer: 30.09 inHg , 1019 hPa
Clouds: Mostly cloudy
Visibility: 10 miles , 16 km
Cloud details: Mostly cloudy 2100 ft
2019/01/23 18:52 KCFV 231852Z AUTO 33010KT 10SM BKN021 M02/M07 A3009 RMK AO2 SLP197 T10171067
 
KIDP - Independence, Kansas, USA
Distance from station: N 32mi, 52km
Updated: Wed, 23-Jan-2019 12:55pm CST
Mostly cloudy
Mostly cloudy
 Wind from WNW
Wind: WNW 9 mph , 15 km/h
Temperature: 28°F , -2°C
Wind Chill: 19°F , -7°C
Dew Point: 19°F , -7°C
Humidity: 69%
Barometer: 30.10 inHg , 1019.3 hPa
Clouds: Mostly cloudy
Visibility: 10 miles , 16 km
Cloud details: Mostly cloudy 2000 ft
2019/01/23 18:55 KIDP 231855Z AUTO 30008KT 10SM BKN020 M02/M07 A3010 RMK AO2 T10201067
KGCM - Claremore, Oklahoma, USA
Distance from station: SE 35mi, 56km
Updated: Wed, 23-Jan-2019 12:55pm CST
Mostly cloudy
Mostly cloudy
 Wind from NW
Wind: NW 13 mph , 20 km/h, Gust: 20 mph , 31 km/h
Temperature: 30°F , -1°C
Wind Chill: 20°F , -7°C
Dew Point: 21°F , -6°C
Humidity: 69%
Barometer: 30.11 inHg , 1019.6 hPa
Clouds: Mostly cloudy
Visibility: 10 miles , 16 km
Cloud details: Mostly cloudy 2300 ft
2019/01/23 18:55 KGCM 231855Z AUTO 32011G17KT 10SM BKN023 M01/M06 A3011 RMK AO2 TSNO
 
KTUL - Tulsa, Oklahoma, USA
Distance from station: S 35mi, 56km
Updated: Wed, 23-Jan-2019 12:53pm CST
Few Clouds
Few Clouds
 Wind from NW
Wind: NW 14 mph , 22 km/h
Temperature: 34°F , 1°C
Wind Chill: 25°F , -4°C
Dew Point: 21°F , -6°C
Humidity: 60%
Barometer: 30.10 inHg , 1019.3 hPa
Clouds: Few Clouds
Visibility: 10 miles , 16 km
Cloud details: Few Clouds 2500 ft
2019/01/23 18:53 KTUL 231853Z 31012KT 10SM FEW025 01/M06 A3010 RMK AO2 SLP197 T00111061
KRVS - Tulsa, Oklahoma, USA
Distance from station: S 46mi, 74km
Updated: Wed, 23-Jan-2019 12:53pm CST
Clear
Clear
 Wind from varies
Wind: varies 7 mph , 11 km/h
Temperature: 34°F , 1°C
Wind Chill: 28°F , -2°C
Dew Point: 19°F , -7°C
Humidity: 56%
Barometer: 30.10 inHg , 1019.3 hPa
Clouds: Clear
Visibility: 10 miles , 16 km
2019/01/23 18:53 KRVS 231853Z VRB06KT 10SM CLR 01/M07 A3010 RMK AO2 SLP204 T00111072
 
KPPF - Parsons, Kansas, USA
Distance from station: NNE 48mi, 76km
Updated: Wed, 23-Jan-2019 12:52pm CST
Mostly cloudy
Mostly cloudy
 Wind from WNW
Wind: WNW 10 mph , 17 km/h
Temperature: 28°F , -2°C
Wind Chill: 19°F , -7°C
Dew Point: 21°F , -6°C
Humidity: 74%
Barometer: 30.09 inHg , 1019 hPa
Clouds: Mostly cloudy
Visibility: 10 miles , 16 km
Cloud details: Mostly cloudy 1800 ft
2019/01/23 18:52 KPPF 231852Z AUTO 30009KT 10SM BKN018 M02/M06 A3009 RMK AO2 SLP198 T10221061
KGMJ - Grove, Oklahoma, USA
Distance from station: E 63mi, 101km
Updated: Wed, 23-Jan-2019 12:55pm CST
Overcast
Overcast
 Wind from NW
Wind: NW 10 mph , 17 km/h
Temperature: 28°F , -2°C
Wind Chill: 19°F , -7°C
Dew Point: 19°F , -7°C
Humidity: 69%
Barometer: 30.08 inHg , 1018.6 hPa
Clouds: Overcast
Visibility: 10 miles , 16 km
Cloud details: Overcast 2100 ft
2019/01/23 18:55 KGMJ 231855Z AUTO 32009KT 10SM OVC021 M02/M07 A3008 RMK AO2
 
KPNC - Ponca City, Oklahoma, USA
Distance from station: W 69mi, 111km
Updated: Wed, 23-Jan-2019 12:53pm CST
Clear
Clear
 Wind from WNW
Wind: WNW 8 mph , 13 km/h
Temperature: 34°F , 1°C
Wind Chill: 27°F , -3°C
Dew Point: 19°F , -7°C
Humidity: 56%
Barometer: 30.11 inHg , 1019.6 hPa
Clouds: Clear
Visibility: 10 miles , 16 km
2019/01/23 18:53 KPNC 231853Z AUTO 30007KT 10SM CLR 01/M07 A3011 RMK AO2 SLP204 T00061067
KCNU - Chanute, Kansas, USA
Distance from station: NNE 69mi, 112km
Updated: Wed, 23-Jan-2019 12:52pm CST
Overcast
Overcast
 Wind from NW
Wind: NW 12 mph , 19 km/h, Gust: 21 mph , 33 km/h
Temperature: 27°F , -3°C
Wind Chill: 16°F , -9°C
Dew Point: 21°F , -6°C
Humidity: 80%
Barometer: 30.08 inHg , 1018.6 hPa
Clouds: Overcast
Visibility: 10 miles , 16 km
Cloud details: Overcast 1500 ft
2019/01/23 18:52 KCNU 231852Z AUTO 31010G18KT 10SM OVC015 M03/M06 A3008 RMK AO2 SLP195 T10331061